Time;durP1;ratioP1;P1;durP2;ratioP2;P2;SDS_P1;SDS_P2;PMS_P1;PMS_P2;Temp;Humidity;BMP_temperature;BMP_pressure;BME280_temperature;BME280_humidity;BME280_pressure;Samples;Min_cycle;Max_cycle;Signal;HPM_P1;HPM_P2
2022/11/07 00:01:28;;;;;;;4.00;3.00;;;9.20;99.90;;;;;;5054463;28;21086;-69
2022/11/07 00:03:54;;;;;;;4.30;3.23;;;9.20;99.90;;;;;;5042232;28;20458;-69
2022/11/07 00:06:20;;;;;;;6.97;3.97;;;9.20;99.90;;;;;;5040086;28;20467;-69
2022/11/07 00:08:45;;;;;;;4.20;3.07;;;9.20;99.90;;;;;;5036442;28;20819;-69
2022/11/07 00:11:11;;;;;;;5.17;3.23;;;9.20;99.90;;;;;;5041695;28;20277;-69
2022/11/07 00:13:37;;;;;;;6.17;4.50;;;9.30;99.90;;;;;;5043873;28;20223;-67
2022/11/07 00:16:09;;;;;;;4.80;3.47;;;9.30;99.90;;;;;;5042278;28;20274;-70
2022/11/07 00:18:34;;;;;;;8.00;3.67;;;9.30;99.90;;;;;;5042587;28;20231;-69
2022/11/07 00:21:02;;;;;;;5.07;3.40;;;9.30;99.90;;;;;;5057713;28;20459;-69
2022/11/07 00:23:27;;;;;;;4.87;4.40;;;9.30;99.90;;;;;;5040607;28;20234;-68
2022/11/07 00:25:53;;;;;;;4.80;3.80;;;9.40;99.90;;;;;;5043508;28;20482;-69
2022/11/07 00:28:19;;;;;;;5.10;3.57;;;9.40;99.90;;;;;;5047198;28;20253;-69
2022/11/07 00:30:44;;;;;;;5.30;3.50;;;9.40;99.90;;;;;;5041492;28;20233;-71
2022/11/07 00:33:10;;;;;;;10.10;4.10;;;9.40;99.90;;;;;;5040586;28;20224;-70
2022/11/07 00:35:42;;;;;;;8.73;4.03;;;9.40;99.90;;;;;;5039959;28;20209;-71
2022/11/07 00:38:08;;;;;;;7.00;4.30;;;9.40;99.90;;;;;;5052974;28;20244;-70
2022/11/07 00:40:33;;;;;;;3.80;3.47;;;9.40;99.90;;;;;;5040724;28;20482;-69
2022/11/07 00:42:59;;;;;;;5.30;3.97;;;9.40;99.90;;;;;;5051351;28;20266;-69
2022/11/07 00:45:25;;;;;;;4.57;3.97;;;9.40;99.90;;;;;;5030269;28;20618;-70
2022/11/07 00:47:50;;;;;;;5.70;3.90;;;9.50;99.90;;;;;;5031732;28;20212;-70
2022/11/07 00:50:16;;;;;;;6.63;4.60;;;9.40;99.90;;;;;;5032964;28;20224;-70
2022/11/07 00:52:42;;;;;;;5.07;3.73;;;9.50;99.90;;;;;;5048721;28;20231;-69
2022/11/07 00:55:08;;;;;;;7.00;4.40;;;9.50;99.90;;;;;;5048436;28;20224;-69
2022/11/07 00:57:34;;;;;;;5.00;3.90;;;9.50;99.90;;;;;;5044710;28;20216;-69
2022/11/07 00:59:59;;;;;;;3.90;3.33;;;9.50;99.90;;;;;;5050639;28;20302;-71
2022/11/07 01:02:25;;;;;;;5.13;3.53;;;9.50;99.90;;;;;;5049152;28;20216;-69
2022/11/07 01:07:35;;;;;;;5.07;4.00;;;9.50;99.90;;;;;;5047577;28;20226;-69
2022/11/07 01:10:02;;;;;;;7.30;4.30;;;9.50;99.90;;;;;;5031294;28;20493;-70
2022/11/07 01:12:27;;;;;;;7.33;4.07;;;9.60;99.90;;;;;;5030804;28;20982;-70
2022/11/07 01:14:53;;;;;;;4.63;3.40;;;9.60;99.90;;;;;;5054298;28;20462;-70
2022/11/07 01:17:19;;;;;;;6.60;4.10;;;9.50;99.90;;;;;;5046123;28;20259;-70
2022/11/07 01:19:44;;;;;;;3.27;3.07;;;9.60;99.90;;;;;;5032346;28;20239;-70
2022/11/07 01:22:10;;;;;;;4.33;3.93;;;9.60;99.90;;;;;;5050130;28;20223;-70
2022/11/07 01:24:36;;;;;;;6.17;3.83;;;9.60;99.90;;;;;;5047644;28;20212;-70
2022/11/07 01:27:02;;;;;;;4.27;3.30;;;9.60;99.90;;;;;;5045430;28;21009;-70
2022/11/07 01:29:28;;;;;;;5.37;3.90;;;9.60;99.90;;;;;;5047902;28;20227;-69
2022/11/07 01:31:53;;;;;;;5.13;3.90;;;9.60;99.90;;;;;;5044917;28;20266;-69
2022/11/07 01:34:19;;;;;;;3.60;3.17;;;9.60;99.90;;;;;;5046342;28;20663;-70
2022/11/07 01:36:45;;;;;;;5.63;3.63;;;9.60;99.90;;;;;;5049149;28;20215;-69
2022/11/07 01:39:11;;;;;;;4.33;3.63;;;9.60;99.90;;;;;;5033456;28;20234;-69
2022/11/07 01:41:37;;;;;;;5.20;3.67;;;9.60;99.90;;;;;;5044985;28;20817;-70
2022/11/07 01:44:23;;;;;;;5.80;3.57;;;9.60;99.90;;;;;;5025006;28;20223;-69
2022/11/07 01:46:49;;;;;;;5.40;3.97;;;9.60;99.90;;;;;;5046323;28;20462;-69
2022/11/07 01:49:29;;;;;;;6.23;3.40;;;9.60;99.90;;;;;;5021880;28;20458;-70
2022/11/07 01:52:04;;;;;;;4.50;3.60;;;9.70;99.90;;;;;;5048373;28;20618;-69
2022/11/07 01:54:34;;;;;;;3.90;3.50;;;9.70;99.90;;;;;;5045532;28;20534;-70
2022/11/07 01:57:04;;;;;;;6.50;4.33;;;9.70;99.90;;;;;;5053276;28;20459;-69
2022/11/07 01:59:31;;;;;;;9.70;3.63;;;9.70;99.90;;;;;;5028343;28;20463;-70
2022/11/07 02:01:57;;;;;;;11.13;4.07;;;9.70;99.90;;;;;;5054429;28;20462;-70
2022/11/07 02:04:26;;;;;;;4.83;3.20;;;9.70;99.90;;;;;;5027560;28;20455;-69
2022/11/07 02:07:03;;;;;;;5.43;3.43;;;9.70;99.90;;;;;;5044048;28;20469;-71
2022/11/07 02:09:29;;;;;;;4.40;3.57;;;9.70;99.90;;;;;;5022753;28;20454;-70
2022/11/07 02:11:59;;;;;;;8.40;3.43;;;9.70;99.90;;;;;;5026305;28;20976;-70
2022/11/07 02:14:26;;;;;;;11.70;4.00;;;9.70;99.90;;;;;;5037444;28;20462;-71
2022/11/07 02:16:53;;;;;;;5.17;3.80;;;9.70;99.90;;;;;;5043613;28;20458;-69
2022/11/07 02:19:45;;;;;;;4.33;3.17;;;9.70;99.90;;;;;;5023951;28;20450;-71
2022/11/07 02:22:22;;;;;;;4.03;3.53;;;9.70;99.90;;;;;;5032761;28;20466;-71
2022/11/07 02:24:52;;;;;;;4.07;3.73;;;9.70;99.90;;;;;;5059731;28;20477;-70
2022/11/07 02:27:20;;;;;;;4.60;3.60;;;9.70;99.90;;;;;;5043827;28;20456;-70
2022/11/07 02:29:49;;;;;;;5.10;3.63;;;9.80;99.90;;;;;;5041297;28;20799;-70
2022/11/07 02:32:15;;;;;;;4.43;3.37;;;9.80;99.90;;;;;;5036824;28;20455;-67
2022/11/07 02:34:40;;;;;;;8.17;4.13;;;9.80;99.90;;;;;;5037399;28;20460;-70
2022/11/07 02:37:22;;;;;;;4.03;3.60;;;9.80;99.90;;;;;;5033022;28;20269;-70
2022/11/07 02:39:49;;;;;;;5.10;3.90;;;9.80;99.90;;;;;;5034969;28;20218;-69
2022/11/07 02:42:15;;;;;;;7.20;4.50;;;9.80;99.90;;;;;;5052812;28;20574;-68
2022/11/07 02:44:40;;;;;;;5.70;4.00;;;9.80;99.90;;;;;;5034966;28;20514;-70
2022/11/07 02:47:06;;;;;;;6.10;4.20;;;9.80;99.90;;;;;;5043573;28;20443;-70
2022/11/07 02:49:32;;;;;;;4.50;3.97;;;9.80;99.90;;;;;;5040868;28;20269;-71
2022/11/07 02:51:57;;;;;;;5.93;4.07;;;9.90;99.90;;;;;;5035641;28;20307;-70
2022/11/07 02:54:23;;;;;;;5.07;3.70;;;9.80;99.90;;;;;;5060058;28;20200;-70
2022/11/07 02:56:49;;;;;;;9.73;3.87;;;9.90;99.90;;;;;;5035098;28;20766;-71
2022/11/07 02:59:14;;;;;;;4.47;3.80;;;9.90;99.90;;;;;;5035079;28;20225;-70
2022/11/07 03:01:40;;;;;;;7.50;3.60;;;9.90;99.90;;;;;;5027302;28;20221;-70
2022/11/07 03:04:05;;;;;;;4.90;3.90;;;9.90;99.90;;;;;;5045586;28;20204;-71
2022/11/07 03:06:31;;;;;;;5.60;3.93;;;9.90;99.90;;;;;;5059743;28;20236;-71
2022/11/07 03:08:57;;;;;;;3.87;3.53;;;9.90;99.90;;;;;;5041610;28;20220;-71
2022/11/07 03:11:22;;;;;;;5.43;3.97;;;9.90;99.90;;;;;;5061701;28;20216;-69
2022/11/07 03:13:49;;;;;;;4.27;3.10;;;10.00;99.90;;;;;;5035898;28;20240;-70
2022/11/07 03:16:17;;;;;;;5.13;3.10;;;9.90;99.90;;;;;;5048680;28;20219;-71
2022/11/07 03:18:43;;;;;;;5.50;3.53;;;9.90;99.90;;;;;;5050079;28;20458;-70
2022/11/07 03:21:08;;;;;;;4.20;3.77;;;9.90;99.90;;;;;;5044485;28;20474;-70
2022/11/07 03:23:35;;;;;;;7.73;3.00;;;10.00;99.90;;;;;;5038777;28;20212;-71
2022/11/07 03:26:01;;;;;;;4.00;2.97;;;10.00;99.90;;;;;;5041713;28;20232;-71
2022/11/07 03:28:27;;;;;;;5.10;3.90;;;10.00;99.90;;;;;;5046378;28;21207;-70
2022/11/07 03:30:52;;;;;;;5.40;2.80;;;10.00;99.90;;;;;;5058333;28;20469;-70
2022/11/07 03:33:18;;;;;;;4.33;3.43;;;10.00;99.90;;;;;;5039168;28;20215;-69
2022/11/07 03:35:44;;;;;;;3.50;3.13;;;10.00;99.90;;;;;;5044033;28;20224;-70
2022/11/07 03:38:10;;;;;;;3.20;2.80;;;10.00;99.90;;;;;;5049263;28;20265;-71
2022/11/07 03:40:36;;;;;;;2.90;2.60;;;10.10;99.90;;;;;;5047925;28;20224;-71
2022/11/07 03:43:01;;;;;;;7.70;3.63;;;10.10;99.90;;;;;;5039585;28;20477;-71
2022/11/07 03:45:27;;;;;;;5.03;3.37;;;10.10;99.90;;;;;;5047407;28;20216;-70
2022/11/07 03:47:53;;;;;;;11.00;3.07;;;10.10;99.90;;;;;;5047306;28;20213;-70
2022/11/07 03:50:20;;;;;;;4.73;2.90;;;10.10;99.90;;;;;;5041701;28;20204;-71
2022/11/07 03:52:47;;;;;;;6.30;3.67;;;10.10;99.90;;;;;;5045638;28;20278;-71
2022/11/07 03:55:14;;;;;;;6.43;3.40;;;10.10;99.90;;;;;;5040491;28;20459;-70
2022/11/07 03:57:41;;;;;;;4.10;2.70;;;10.10;99.90;;;;;;5046026;28;20986;-70
2022/11/07 04:00:08;;;;;;;3.43;3.13;;;10.10;99.90;;;;;;5040108;28;20458;-70
2022/11/07 04:02:40;;;;;;;6.90;2.80;;;10.10;99.90;;;;;;5058258;28;20458;-71
2022/11/07 04:05:06;;;;;;;3.43;3.13;;;10.20;99.90;;;;;;5058828;28;20478;-71
2022/11/07 04:07:32;;;;;;;3.47;3.17;;;10.10;99.90;;;;;;5038410;28;20457;-71
2022/11/07 04:09:57;;;;;;;4.23;2.70;;;10.10;99.90;;;;;;5051244;28;20247;-71
2022/11/07 04:17:53;;;;;;;3.50;3.20;;;10.20;99.90;;;;;;5036768;28;20533;-70
2022/11/07 04:20:18;;;;;;;3.20;2.53;;;10.20;99.90;;;;;;5049348;28;20450;-71
2022/11/07 04:22:44;;;;;;;5.17;2.97;;;10.30;99.90;;;;;;5027935;28;20297;-70
2022/11/07 04:25:09;;;;;;;4.70;2.50;;;10.30;99.90;;;;;;5043958;28;20221;-71
2022/11/07 04:27:41;;;;;;;2.97;2.67;;;10.30;99.90;;;;;;5042907;28;20226;-70
2022/11/07 04:30:17;;;;;;;5.93;3.10;;;10.30;99.90;;;;;;5026177;28;20261;-70
2022/11/07 04:32:48;;;;;;;5.50;3.60;;;10.30;99.90;;;;;;5046927;28;20454;-70
2022/11/07 04:35:15;;;;;;;4.10;3.20;;;10.40;99.90;;;;;;5036616;28;20845;-69
2022/11/07 04:37:41;;;;;;;4.07;2.73;;;10.40;99.90;;;;;;5042369;28;20539;-70
2022/11/07 04:40:08;;;;;;;5.23;4.67;;;10.40;99.90;;;;;;5061444;28;20561;-71
2022/11/07 04:42:34;;;;;;;4.43;3.10;;;10.40;99.90;;;;;;5043574;28;20269;-71
2022/11/07 04:44:59;;;;;;;6.10;2.60;;;10.40;99.90;;;;;;5040908;28;20475;-70
2022/11/07 04:47:25;;;;;;;6.90;2.97;;;10.40;99.90;;;;;;5045771;28;20227;-70
2022/11/07 04:49:51;;;;;;;5.07;3.10;;;10.40;99.90;;;;;;5052171;28;20220;-71
2022/11/07 04:52:16;;;;;;;6.97;2.97;;;10.40;99.90;;;;;;5036811;28;20223;-69
2022/11/07 04:54:42;;;;;;;6.97;3.40;;;10.40;99.90;;;;;;5049958;28;20219;-70
2022/11/07 04:57:08;;;;;;;5.03;3.10;;;10.40;99.90;;;;;;5023905;28;20208;-70
2022/11/07 04:59:33;;;;;;;7.00;3.37;;;10.40;99.90;;;;;;5038593;28;20574;-70
2022/11/07 05:02:00;;;;;;;6.27;3.30;;;10.40;99.90;;;;;;5043494;28;20715;-70
2022/11/07 05:04:26;;;;;;;8.10;3.13;;;10.40;99.90;;;;;;5056034;28;20219;-71
2022/11/07 05:06:51;;;;;;;3.40;2.97;;;10.40;99.90;;;;;;5038334;28;20462;-71
2022/11/07 05:09:17;;;;;;;6.60;2.73;;;10.40;99.90;;;;;;5052065;28;20347;-70
2022/11/07 05:11:44;;;;;;;7.57;3.20;;;10.40;99.90;;;;;;5050640;28;20569;-70
2022/11/07 05:14:10;;;;;;;4.43;3.10;;;10.40;99.90;;;;;;5050457;28;20468;-71
2022/11/07 05:16:36;;;;;;;3.00;2.40;;;10.40;99.90;;;;;;5043989;28;20466;-71
2022/11/07 05:19:02;;;;;;;4.77;2.40;;;10.40;99.90;;;;;;5036017;28;20270;-70
2022/11/07 05:21:28;;;;;;;4.33;2.90;;;10.40;99.90;;;;;;5041542;28;20469;-71
2022/11/07 05:23:53;;;;;;;6.20;2.57;;;10.40;99.90;;;;;;5042254;28;20471;-70
2022/11/07 05:26:19;;;;;;;2.97;2.67;;;10.40;99.90;;;;;;5057747;28;20216;-70
2022/11/07 05:28:45;;;;;;;4.43;2.80;;;10.40;99.90;;;;;;5046332;28;20219;-70
2022/11/07 05:31:14;;;;;;;3.40;2.47;;;10.40;99.90;;;;;;5051504;28;20235;-72
2022/11/07 05:33:40;;;;;;;6.13;2.70;;;10.40;99.90;;;;;;5048457;28;20234;-69
2022/11/07 05:36:18;;;;;;;3.87;2.43;;;10.40;99.90;;;;;;5038402;28;20462;-71
2022/11/07 05:38:46;;;;;;;4.40;2.90;;;10.40;99.90;;;;;;5045712;28;20307;-70
2022/11/07 05:41:13;;;;;;;2.83;2.13;;;10.40;99.90;;;;;;5039565;28;20466;-71
2022/11/07 05:43:39;;;;;;;3.23;2.90;;;10.40;99.90;;;;;;5046069;28;20451;-70
2022/11/07 05:46:06;;;;;;;3.90;3.10;;;10.40;99.90;;;;;;5039738;28;20501;-71
2022/11/07 05:48:32;;;;;;;6.00;2.90;;;10.40;99.90;;;;;;5056312;28;20255;-69
2022/11/07 05:50:58;;;;;;;2.67;2.47;;;10.40;99.90;;;;;;5038486;28;20469;-69
2022/11/07 05:53:24;;;;;;;5.30;3.37;;;10.40;99.90;;;;;;5039312;28;20216;-70
2022/11/07 05:55:54;;;;;;;3.17;2.87;;;10.40;99.90;;;;;;5056355;28;20537;-70
2022/11/07 05:58:20;;;;;;;6.67;3.37;;;10.40;99.90;;;;;;5027472;28;20467;-70
2022/11/07 06:00:46;;;;;;;2.30;2.20;;;10.40;99.90;;;;;;5044743;28;20471;-70
2022/11/07 06:03:15;;;;;;;3.37;2.93;;;10.40;99.90;;;;;;5052344;28;20524;-70
2022/11/07 06:05:41;;;;;;;4.07;3.50;;;10.40;99.90;;;;;;5041936;28;20455;-71
2022/11/07 06:08:10;;;;;;;3.00;2.70;;;10.40;99.90;;;;;;5046243;28;20467;-70
2022/11/07 06:10:41;;;;;;;3.33;3.03;;;10.40;99.90;;;;;;5036540;28;20520;-70
2022/11/07 06:13:10;;;;;;;4.57;2.93;;;10.40;99.90;;;;;;5025459;28;20482;-71
2022/11/07 06:15:37;;;;;;;4.23;2.70;;;10.40;99.90;;;;;;5043747;28;20582;-70
2022/11/07 06:18:05;;;;;;;6.60;2.90;;;10.40;99.90;;;;;;5048686;28;20853;-70
2022/11/07 06:20:32;;;;;;;3.80;2.50;;;10.40;99.90;;;;;;5031029;28;20529;-70
2022/11/07 06:22:59;;;;;;;3.80;2.60;;;10.40;99.90;;;;;;5047243;28;20483;-71
2022/11/07 06:25:26;;;;;;;7.23;2.80;;;10.40;99.90;;;;;;5036017;28;20509;-71
2022/11/07 06:27:52;;;;;;;3.00;2.70;;;10.40;99.90;;;;;;5022595;28;20534;-71
2022/11/07 06:30:18;;;;;;;3.70;1.90;;;10.40;99.90;;;;;;5047964;28;20470;-71
2022/11/07 06:32:44;;;;;;;2.43;1.87;;;10.50;99.90;;;;;;5063568;28;20450;-69
2022/11/07 06:35:11;;;;;;;11.43;2.53;;;10.50;99.90;;;;;;5060951;28;20212;-68
2022/11/07 06:37:37;;;;;;;7.00;2.97;;;10.50;99.90;;;;;;5048232;28;20482;-71
2022/11/07 06:40:04;;;;;;;5.50;2.67;;;10.50;99.90;;;;;;5066332;28;20458;-70
2022/11/07 06:42:29;;;;;;;4.57;2.13;;;10.50;99.90;;;;;;5042832;28;20454;-70
2022/11/07 06:44:55;;;;;;;2.50;2.27;;;10.50;99.90;;;;;;5061359;28;20462;-71
2022/11/07 06:47:21;;;;;;;6.83;2.53;;;10.50;99.90;;;;;;5045392;28;20224;-71
2022/11/07 06:49:46;;;;;;;3.60;2.40;;;10.50;99.90;;;;;;5039886;28;20220;-71
2022/11/07 06:52:12;;;;;;;2.50;2.23;;;10.50;99.90;;;;;;5044790;28;20207;-71
2022/11/07 06:54:38;;;;;;;3.10;2.40;;;10.50;99.90;;;;;;5035489;28;20218;-71
2022/11/07 06:57:03;;;;;;;5.43;3.07;;;10.50;99.90;;;;;;5023784;28;20248;-72
2022/11/07 06:59:29;;;;;;;9.63;2.30;;;10.50;99.90;;;;;;5049498;28;20242;-70
2022/11/07 07:01:54;;;;;;;4.20;2.13;;;10.50;99.90;;;;;;5038269;28;20290;-71
2022/11/07 07:04:20;;;;;;;3.47;2.33;;;10.50;99.90;;;;;;5041831;28;20224;-71
2022/11/07 07:06:46;;;;;;;2.60;2.40;;;10.60;99.90;;;;;;5045143;28;20361;-72
2022/11/07 07:09:11;;;;;;;3.67;2.20;;;10.60;99.90;;;;;;5041396;28;20232;-71
2022/11/07 07:11:37;;;;;;;4.80;2.20;;;10.60;99.90;;;;;;5031015;28;20232;-71
2022/11/07 07:14:04;;;;;;;3.23;2.33;;;10.60;99.90;;;;;;5043316;28;20222;-70
2022/11/07 07:16:30;;;;;;;3.90;2.40;;;10.60;99.90;;;;;;5036388;28;20225;-71
2022/11/07 07:18:55;;;;;;;5.63;2.53;;;10.60;99.90;;;;;;5041534;28;20466;-70
2022/11/07 07:21:21;;;;;;;4.27;2.27;;;10.60;99.90;;;;;;5058659;28;20305;-71
2022/11/07 07:23:47;;;;;;;3.47;2.50;;;10.60;99.90;;;;;;5035201;28;20231;-69
2022/11/07 07:26:14;;;;;;;2.17;1.97;;;10.60;99.90;;;;;;5043381;28;20314;-71
2022/11/07 07:28:41;;;;;;;6.17;2.60;;;10.60;99.90;;;;;;5041948;28;20220;-72
2022/11/07 07:31:07;;;;;;;5.90;2.30;;;10.70;99.90;;;;;;5037602;28;20498;-70
2022/11/07 07:33:33;;;;;;;4.10;2.47;;;10.70;99.90;;;;;;5065730;28;20450;-72
2022/11/07 07:35:59;;;;;;;4.93;2.80;;;10.70;99.90;;;;;;5060875;28;20508;-70
2022/11/07 07:38:25;;;;;;;3.60;2.10;;;10.70;99.90;;;;;;5049777;28;20216;-71
2022/11/07 07:40:51;;;;;;;3.43;2.67;;;10.70;99.90;;;;;;5030206;28;20215;-72
2022/11/07 07:43:16;;;;;;;5.17;2.90;;;10.70;99.90;;;;;;5050929;28;20719;-72
2022/11/07 07:45:42;;;;;;;14.83;2.40;;;10.70;99.90;;;;;;5029626;28;20228;-72
2022/11/07 07:48:08;;;;;;;2.03;1.73;;;10.80;99.90;;;;;;5044733;28;20227;-71
2022/11/07 07:50:34;;;;;;;6.03;3.23;;;10.70;99.90;;;;;;5042789;28;20250;-72
2022/11/07 07:53:00;;;;;;;7.60;2.47;;;10.70;99.90;;;;;;5070026;28;20509;-72
2022/11/07 07:55:28;;;;;;;3.63;2.87;;;10.70;99.90;;;;;;5041870;28;20461;-71
2022/11/07 07:57:54;;;;;;;3.53;2.70;;;10.80;99.90;;;;;;5066377;28;20232;-71
2022/11/07 08:00:20;;;;;;;3.10;2.80;;;10.80;99.90;;;;;;5051596;28;20461;-71
2022/11/07 08:02:46;;;;;;;3.33;2.70;;;10.80;99.90;;;;;;5029716;28;20212;-71
2022/11/07 08:05:13;;;;;;;3.13;2.93;;;10.90;99.90;;;;;;5048662;28;20986;-71
2022/11/07 08:07:49;;;;;;;7.30;3.00;;;10.80;99.90;;;;;;5049984;28;20829;-70
2022/11/07 08:10:17;;;;;;;7.20;2.73;;;10.90;99.90;;;;;;5066910;28;20454;-71
2022/11/07 08:12:47;;;;;;;3.60;3.20;;;10.90;99.90;;;;;;5046967;28;20931;-70
2022/11/07 08:15:14;;;;;;;4.07;3.20;;;10.90;99.90;;;;;;5043837;28;20462;-70
2022/11/07 08:17:40;;;;;;;4.17;2.53;;;10.90;99.90;;;;;;5030776;28;20525;-71
2022/11/07 08:20:08;;;;;;;6.53;3.07;;;11.00;99.90;;;;;;5034565;28;20455;-71
2022/11/07 08:22:35;;;;;;;6.80;3.00;;;11.00;99.90;;;;;;5038593;28;20535;-70
2022/11/07 08:25:00;;;;;;;2.93;2.27;;;11.00;99.90;;;;;;5048869;28;20481;-72
2022/11/07 08:27:26;;;;;;;2.43;2.23;;;11.00;99.90;;;;;;5057316;28;20450;-70
2022/11/07 08:29:52;;;;;;;2.90;1.80;;;11.10;99.90;;;;;;5049820;28;20269;-70
2022/11/07 08:32:17;;;;;;;6.73;2.60;;;11.10;99.90;;;;;;5042621;28;20692;-69
2022/11/07 08:34:43;;;;;;;2.73;1.97;;;11.10;99.90;;;;;;5044825;28;20231;-70
2022/11/07 08:37:09;;;;;;;6.00;2.53;;;11.10;99.90;;;;;;5035391;28;20227;-72
2022/11/07 08:39:34;;;;;;;6.10;2.37;;;11.20;99.90;;;;;;5044027;28;20711;-72
2022/11/07 08:42:00;;;;;;;8.53;2.60;;;11.20;99.90;;;;;;5046732;28;20220;-72
2022/11/07 08:44:25;;;;;;;5.80;2.10;;;11.30;99.90;;;;;;5044805;28;20212;-70
2022/11/07 08:46:51;;;;;;;4.87;2.10;;;11.30;99.90;;;;;;5045050;28;20761;-72
2022/11/07 08:49:17;;;;;;;3.23;1.97;;;11.30;99.90;;;;;;5034714;28;20228;-72
2022/11/07 08:51:42;;;;;;;5.07;2.20;;;11.40;99.90;;;;;;5037278;28;20218;-72
2022/11/07 08:54:10;;;;;;;2.80;2.13;;;11.40;99.90;;;;;;5042664;28;20306;-71
2022/11/07 08:56:36;;;;;;;2.70;1.70;;;11.40;99.90;;;;;;5039688;28;20242;-70
2022/11/07 08:59:02;;;;;;;3.80;2.17;;;11.40;99.90;;;;;;5040296;28;20857;-72
2022/11/07 09:01:27;;;;;;;5.47;2.57;;;11.50;99.90;;;;;;5043188;28;20231;-72
2022/11/07 09:03:53;;;;;;;5.37;2.43;;;11.60;99.90;;;;;;5054748;28;20231;-72
2022/11/07 09:06:19;;;;;;;4.50;1.83;;;11.60;99.90;;;;;;5054757;28;20229;-70
2022/11/07 09:08:44;;;;;;;5.47;2.20;;;11.70;99.90;;;;;;5040017;28;20354;-72
2022/11/07 09:11:14;;;;;;;3.90;2.83;;;11.70;99.90;;;;;;5025011;28;20599;-71
2022/11/07 09:13:40;;;;;;;6.93;2.00;;;11.80;99.90;;;;;;5043520;28;20224;-72
2022/11/07 09:16:06;;;;;;;3.23;2.30;;;11.80;99.90;;;;;;5057139;28;20490;-72
2022/11/07 09:18:32;;;;;;;4.27;2.23;;;11.80;99.90;;;;;;5039757;28;20342;-71
2022/11/07 09:20:58;;;;;;;4.43;2.63;;;11.80;99.90;;;;;;5030185;28;20225;-71
2022/11/07 09:23:24;;;;;;;11.73;2.70;;;11.90;99.90;;;;;;5044628;28;20467;-73
2022/11/07 09:25:50;;;;;;;4.60;2.13;;;11.90;99.90;;;;;;5037963;28;20458;-72
2022/11/07 09:28:15;;;;;;;2.33;1.60;;;11.90;99.90;;;;;;5042143;28;20708;-71
2022/11/07 09:30:41;;;;;;;3.33;2.70;;;11.90;99.90;;;;;;5038122;28;20577;-70
2022/11/07 09:33:07;;;;;;;1.73;1.53;;;12.00;99.90;;;;;;5053059;28;20269;-72
2022/11/07 09:35:33;;;;;;;5.33;2.30;;;12.00;99.90;;;;;;5039711;28;20208;-71
2022/11/07 09:37:58;;;;;;;7.07;2.50;;;12.00;99.90;;;;;;5042810;28;20220;-73
2022/11/07 09:40:45;;;;;;;2.83;1.90;;;12.00;99.90;;;;;;5046182;28;20220;-71
2022/11/07 09:43:20;;;;;;;11.23;3.10;;;12.10;99.90;;;;;;5026935;28;20227;-70
2022/11/07 09:46:23;;;;;;;3.20;2.00;;;12.10;99.90;;;;;;5043982;28;20453;-71
2022/11/07 09:48:58;;;;;;;6.77;2.70;;;12.10;99.90;;;;;;5038896;28;20525;-71
2022/11/07 10:08:49;;;;;;;3.07;1.80;;;12.30;99.90;;;;;;5061135;27;21007;-69
2022/11/07 10:11:30;;;;;;;3.47;2.50;;;12.60;99.90;;;;;;5071959;28;20546;-71
2022/11/07 10:14:36;;;;;;;5.27;2.90;;;12.60;99.90;;;;;;5028094;28;20517;-69
2022/11/07 10:17:24;;;;;;;6.23;1.87;;;12.60;99.90;;;;;;5051642;28;20451;-68
2022/11/07 10:19:56;;;;;;;3.10;2.50;;;12.60;99.90;;;;;;5036105;28;20490;-70
2022/11/07 10:22:27;;;;;;;2.30;2.10;;;12.60;99.90;;;;;;5046263;28;20461;-70
2022/11/07 10:25:20;;;;;;;12.20;2.23;;;12.60;99.90;;;;;;5051831;28;20500;-70
2022/11/07 10:28:06;;;;;;;3.33;2.60;;;12.60;99.90;;;;;;5020567;28;20466;-70
2022/11/07 10:30:33;;;;;;;3.83;1.97;;;12.60;99.90;;;;;;5026906;28;21006;-69
2022/11/07 10:33:12;;;;;;;6.10;2.70;;;12.60;99.90;;;;;;5050052;28;21009;-69
2022/11/07 10:35:43;;;;;;;2.27;2.03;;;12.60;99.90;;;;;;5037850;28;20465;-70
2022/11/07 10:38:25;;;;;;;3.73;2.63;;;12.60;99.90;;;;;;5024105;28;20466;-69
2022/11/07 10:40:52;;;;;;;4.50;2.40;;;12.60;99.90;;;;;;5054247;28;20465;-70
2022/11/07 10:43:38;;;;;;;4.70;2.30;;;12.60;99.90;;;;;;5048602;28;20466;-71
2022/11/07 10:46:13;;;;;;;3.57;2.37;;;12.70;99.90;;;;;;5040326;28;20498;-70
2022/11/07 10:48:56;;;;;;;7.20;2.90;;;12.70;99.90;;;;;;5038813;28;20469;-70
2022/11/07 10:51:39;;;;;;;6.47;2.03;;;12.70;99.90;;;;;;5053794;28;20459;-71
2022/11/07 10:54:06;;;;;;;4.00;2.13;;;12.80;99.90;;;;;;5055704;28;20524;-70
2022/11/07 10:56:46;;;;;;;8.37;2.80;;;12.80;99.90;;;;;;5045457;28;20462;-71
2022/11/07 10:59:13;;;;;;;5.40;2.10;;;12.80;99.90;;;;;;5055297;28;20458;-71
2022/11/07 11:01:39;;;;;;;5.17;2.00;;;12.90;99.90;;;;;;5043179;28;20450;-70
2022/11/07 11:04:05;;;;;;;3.10;2.07;;;12.90;99.90;;;;;;5042233;28;20457;-72
2022/11/07 11:06:30;;;;;;;6.90;2.53;;;12.90;99.90;;;;;;5045818;28;20695;-71
2022/11/07 11:08:57;;;;;;;7.10;2.07;;;13.00;99.90;;;;;;5045646;28;20337;-70
2022/11/07 11:11:31;;;;;;;7.90;1.73;;;13.00;99.90;;;;;;5032841;28;20771;-71
2022/11/07 11:14:11;;;;;;;4.10;2.20;;;13.00;99.90;;;;;;5034661;28;20495;-71
2022/11/07 11:16:39;;;;;;;2.20;2.00;;;13.00;99.90;;;;;;5023286;28;20458;-71
2022/11/07 11:19:15;;;;;;;3.10;2.20;;;13.10;99.90;;;;;;5038166;28;20470;-71
2022/11/07 11:21:44;;;;;;;5.60;2.03;;;13.10;99.90;;;;;;5035917;28;20471;-71
2022/11/07 11:24:36;;;;;;;4.07;2.83;;;13.20;99.90;;;;;;5040839;28;20461;-72
2022/11/07 11:27:22;;;;;;;4.17;1.90;;;13.20;99.90;;;;;;5054726;28;20471;-71
2022/11/07 11:30:10;;;;;;;2.00;1.80;;;13.30;99.90;;;;;;5027132;28;20464;-70
2022/11/07 11:32:42;;;;;;;3.47;1.77;;;13.30;99.90;;;;;;5040666;28;20470;-70
2022/11/07 11:35:16;;;;;;;2.27;1.80;;;13.30;99.90;;;;;;5045944;28;20454;-69
2022/11/07 11:37:49;;;;;;;5.40;2.13;;;13.30;99.90;;;;;;5033995;28;20499;-71
2022/11/07 11:40:21;;;;;;;2.20;1.90;;;13.30;99.90;;;;;;5012733;28;20462;-71
2022/11/07 11:43:11;;;;;;;5.70;2.47;;;13.30;99.90;;;;;;5031328;28;20448;-70
2022/11/07 11:46:08;;;;;;;3.07;2.00;;;13.40;99.90;;;;;;5067843;28;20546;-70
2022/11/07 11:48:40;;;;;;;4.43;2.00;;;13.40;99.90;;;;;;5036535;28;20470;-70
2022/11/07 11:51:11;;;;;;;4.07;2.10;;;13.40;99.90;;;;;;5034314;28;20469;-71
2022/11/07 11:53:36;;;;;;;3.90;2.00;;;13.40;99.90;;;;;;5017720;28;20478;-70
2022/11/07 11:56:05;;;;;;;3.03;2.40;;;13.40;99.90;;;;;;5032355;28;20459;-70
2022/11/07 11:58:33;;;;;;;5.00;2.23;;;13.50;99.90;;;;;;5033536;28;20217;-70
2022/11/07 12:01:12;;;;;;;2.40;2.20;;;13.50;99.90;;;;;;5027807;28;20990;-69
2022/11/07 12:03:49;;;;;;;3.03;2.23;;;13.60;99.90;;;;;;5011161;28;20452;-70
2022/11/07 12:06:22;;;;;;;5.47;2.33;;;13.60;99.90;;;;;;5042337;28;20470;-71
2022/11/07 12:09:15;;;;;;;3.50;2.70;;;13.70;99.90;;;;;;5029520;28;20471;-70
2022/11/07 12:11:59;;;;;;;5.57;2.70;;;13.60;99.90;;;;;;5027197;28;20963;-71
2022/11/07 12:15:06;;;;;;;5.83;2.33;;;13.70;99.90;;;;;;5033676;28;20458;-70
2022/11/07 12:18:10;;;;;;;6.00;2.10;;;13.80;99.90;;;;;;5020413;28;20962;-70
2022/11/07 12:20:58;;;;;;;6.77;2.70;;;13.80;99.90;;;;;;5043529;28;20558;-70
2022/11/07 12:23:53;;;;;;;2.60;2.40;;;13.70;99.90;;;;;;5031147;28;20462;-71
2022/11/07 12:26:33;;;;;;;10.77;2.67;;;13.70;99.90;;;;;;5008307;28;21065;-71
2022/11/07 12:29:22;;;;;;;5.83;3.53;;;13.70;99.90;;;;;;5028620;28;20978;-70
2022/11/07 12:32:02;;;;;;;7.13;2.40;;;13.70;99.90;;;;;;5033074;28;21048;-71
2022/11/07 12:34:36;;;;;;;3.70;2.90;;;13.70;99.90;;;;;;5042747;28;20461;-71
2022/11/07 12:37:23;;;;;;;3.40;2.47;;;13.70;99.90;;;;;;5031061;28;20448;-69
2022/11/07 12:40:12;;;;;;;4.97;1.83;;;13.70;99.90;;;;;;5032352;28;20481;-70
2022/11/07 12:43:15;;;;;;;4.30;2.53;;;13.80;99.90;;;;;;5014762;28;20458;-71
2022/11/07 12:45:47;;;;;;;3.97;2.47;;;13.80;99.90;;;;;;5045494;28;20557;-71
2022/11/07 12:48:25;;;;;;;5.20;2.47;;;13.70;99.90;;;;;;5036934;28;20470;-71
2022/11/07 12:51:05;;;;;;;5.17;2.13;;;13.70;99.90;;;;;;5017863;28;20455;-71
2022/11/07 12:53:50;;;;;;;4.83;2.67;;;13.70;99.90;;;;;;5014628;28;20452;-70
2022/11/07 12:56:21;;;;;;;3.47;2.00;;;13.70;99.90;;;;;;5024957;28;21078;-71
2022/11/07 12:58:48;;;;;;;4.73;2.20;;;13.70;99.90;;;;;;5030807;28;20513;-70
2022/11/07 13:01:20;;;;;;;4.97;2.33;;;13.70;99.90;;;;;;5026426;28;20478;-71
2022/11/07 13:04:13;;;;;;;5.40;2.57;;;13.60;99.90;;;;;;5038888;28;20462;-71
2022/11/07 13:06:56;;;;;;;4.67;2.40;;;13.70;99.90;;;;;;5033207;28;20474;-71
2022/11/07 13:09:31;;;;;;;10.83;2.63;;;13.60;99.90;;;;;;5021150;28;20464;-71
2022/11/07 13:12:00;;;;;;;6.07;2.93;;;13.70;99.90;;;;;;5012674;28;20444;-71
2022/11/07 13:14:40;;;;;;;5.47;2.77;;;13.70;99.90;;;;;;5029595;28;20530;-71
2022/11/07 13:17:42;;;;;;;4.23;2.43;;;13.70;99.90;;;;;;5042713;28;20454;-70
2022/11/07 13:20:20;;;;;;;2.90;2.07;;;13.70;99.90;;;;;;5019427;28;20461;-71
2022/11/07 13:22:57;;;;;;;2.37;2.10;;;13.70;99.90;;;;;;5024282;28;20897;-71
2022/11/07 13:25:31;;;;;;;3.43;2.17;;;13.70;99.90;;;;;;5024318;28;20554;-71
2022/11/07 13:27:56;;;;;;;3.53;2.17;;;13.70;99.90;;;;;;5030471;28;20486;-70